createdAt,value
2023-05-22T00:01:30.211Z,11.80
2023-05-22T00:03:57.254Z,11.80
2023-05-22T00:06:24.711Z,11.80
2023-05-22T00:08:51.851Z,11.80
2023-05-22T00:11:18.935Z,11.80
2023-05-22T00:13:46.652Z,11.80
2023-05-22T00:16:13.866Z,11.70
2023-05-22T00:18:44.798Z,11.70
2023-05-22T00:21:12.151Z,11.70
2023-05-22T00:23:39.205Z,11.70
2023-05-22T00:26:06.349Z,11.70
2023-05-22T00:28:33.465Z,11.70
2023-05-22T00:31:00.555Z,11.70
2023-05-22T00:33:27.639Z,11.70
2023-05-22T00:35:54.789Z,11.70
2023-05-22T00:38:36.720Z,11.70
2023-05-22T00:41:06.088Z,11.70
2023-05-22T00:43:36.389Z,11.70
2023-05-22T00:46:03.519Z,11.70
2023-05-22T00:48:31.216Z,11.80
2023-05-22T00:50:59.584Z,11.80
2023-05-22T00:53:29.181Z,11.80
2023-05-22T00:55:58.944Z,11.80
2023-05-22T00:58:27.163Z,11.80
2023-05-22T01:00:55.546Z,11.80
2023-05-22T01:03:26.982Z,11.80
2023-05-22T01:05:55.109Z,11.90
2023-05-22T01:08:23.259Z,11.90
2023-05-22T01:11:05.034Z,11.90
2023-05-22T01:13:50.850Z,11.80
2023-05-22T01:16:33.951Z,11.80
2023-05-22T01:19:18.103Z,11.80
2023-05-22T01:22:21.745Z,11.80
2023-05-22T01:24:48.864Z,11.80
2023-05-22T01:27:43.045Z,11.80
2023-05-22T01:30:21.186Z,11.80
2023-05-22T01:32:49.803Z,11.80
2023-05-22T01:35:21.177Z,11.80
2023-05-22T01:37:49.380Z,11.80
2023-05-22T01:40:17.531Z,11.90
2023-05-22T01:42:45.896Z,11.90
2023-05-22T01:45:15.003Z,11.90
2023-05-22T01:47:42.164Z,11.90
2023-05-22T01:50:09.895Z,11.90
2023-05-22T01:52:46.406Z,11.90
2023-05-22T01:55:20.371Z,11.90
2023-05-22T01:57:58.051Z,11.90
2023-05-22T02:00:27.690Z,11.90
2023-05-22T02:03:02.128Z,11.90
2023-05-22T02:05:32.716Z,11.90
2023-05-22T02:08:02.233Z,11.90
2023-05-22T02:10:30.657Z,11.90
2023-05-22T02:12:58.019Z,11.90
2023-05-22T02:15:25.225Z,11.90
2023-05-22T02:17:54.023Z,11.90
2023-05-22T02:20:21.204Z,11.90
2023-05-22T02:22:48.463Z,11.90
2023-05-22T02:25:17.216Z,11.90
2023-05-22T02:27:47.757Z,11.80
2023-05-22T02:30:15.700Z,11.80
2023-05-22T02:32:44.722Z,11.80
2023-05-22T02:35:11.923Z,11.80
2023-05-22T02:37:39.090Z,11.90
2023-05-22T02:40:07.395Z,11.90
2023-05-22T02:42:34.736Z,11.90
2023-05-22T02:45:02.980Z,11.90
2023-05-22T02:47:30.455Z,11.90
2023-05-22T02:50:00.494Z,11.90
2023-05-22T02:52:28.455Z,11.90
2023-05-22T02:54:55.666Z,11.90
2023-05-22T02:57:23.560Z,11.90
2023-05-22T02:59:51.205Z,11.90
2023-05-22T03:02:18.481Z,11.90
2023-05-22T03:04:45.597Z,12.00
2023-05-22T03:07:12.689Z,12.00
2023-05-22T03:09:39.883Z,12.00
2023-05-22T03:12:07.263Z,12.00
2023-05-22T03:14:34.698Z,12.00
2023-05-22T03:17:01.810Z,12.00
2023-05-22T03:19:29.073Z,12.00
2023-05-22T03:21:56.607Z,12.00
2023-05-22T03:24:23.848Z,12.00
2023-05-22T03:26:51.063Z,11.90
2023-05-22T03:29:31.397Z,12.00
2023-05-22T03:31:59.003Z,12.00
2023-05-22T03:34:27.500Z,11.90
2023-05-22T03:36:57.450Z,11.90
2023-05-22T03:39:24.637Z,11.90
2023-05-22T03:41:57.461Z,11.90
2023-05-22T03:44:25.624Z,11.80
2023-05-22T03:46:53.580Z,11.80
2023-05-22T03:49:20.863Z,11.80
2023-05-22T03:51:47.877Z,11.80
2023-05-22T03:54:16.307Z,11.80
2023-05-22T03:56:43.798Z,11.80
2023-05-22T03:59:10.920Z,11.80
2023-05-22T04:01:39.663Z,11.80
2023-05-22T04:04:06.784Z,11.80
2023-05-22T04:06:34.281Z,11.80
2023-05-22T04:09:01.382Z,11.80
2023-05-22T04:11:30.605Z,11.70
2023-05-22T04:14:02.878Z,11.70
2023-05-22T04:16:30.098Z,11.60
2023-05-22T04:18:58.020Z,11.60
2023-05-22T04:21:25.110Z,11.50
2023-05-22T04:23:52.224Z,11.50
2023-05-22T04:26:20.930Z,11.50
2023-05-22T04:28:48.175Z,11.50
2023-05-22T04:31:15.501Z,11.50
2023-05-22T04:33:42.870Z,11.50
2023-05-22T04:36:12.285Z,11.50
2023-05-22T04:38:41.529Z,11.50
2023-05-22T04:41:13.548Z,11.50
2023-05-22T04:43:40.869Z,11.60
2023-05-22T04:46:08.798Z,11.60
2023-05-22T04:48:36.975Z,11.60
2023-05-22T04:51:04.807Z,11.60
2023-05-22T04:53:33.524Z,11.60
2023-05-22T04:56:00.909Z,11.60
2023-05-22T04:58:29.559Z,11.60
2023-05-22T05:00:59.350Z,11.60
2023-05-22T05:03:28.581Z,11.60
2023-05-22T05:05:56.876Z,11.60
2023-05-22T05:08:23.975Z,11.60
2023-05-22T05:10:51.353Z,11.60
2023-05-22T05:13:18.486Z,11.60
2023-05-22T05:15:46.038Z,11.60
2023-05-22T05:18:13.229Z,11.60
2023-05-22T05:20:42.770Z,11.60
2023-05-22T05:23:10.438Z,11.60
2023-05-22T05:25:40.860Z,11.60
2023-05-22T05:28:11.396Z,11.60
2023-05-22T05:30:41.757Z,11.60
2023-05-22T05:33:24.258Z,11.50
2023-05-22T05:36:14.908Z,11.60
2023-05-22T05:38:42.281Z,11.50
2023-05-22T05:41:09.796Z,11.50
2023-05-22T05:43:37.716Z,11.40
2023-05-22T05:46:08.071Z,11.20
2023-05-22T05:48:35.762Z,11.10
2023-05-22T05:51:03.262Z,11.10
2023-05-22T05:53:37.095Z,11.20
2023-05-22T05:56:06.671Z,11.10
2023-05-22T05:58:34.780Z,11.10
2023-05-22T06:01:27.194Z,11.20
2023-05-22T06:03:55.254Z,11.20
2023-05-22T06:06:26.974Z,11.20
2023-05-22T06:09:12.319Z,11.20
2023-05-22T06:12:12.881Z,11.20
2023-05-22T06:14:43.267Z,11.20
2023-05-22T06:17:10.452Z,11.20
2023-05-22T06:19:39.800Z,11.10
2023-05-22T06:22:07.191Z,11.20
2023-05-22T06:24:36.662Z,11.20
2023-05-22T06:27:09.557Z,11.10
2023-05-22T06:29:36.794Z,11.20
2023-05-22T06:32:04.330Z,11.10
2023-05-22T06:34:31.531Z,11.10
2023-05-22T06:36:59.682Z,11.20
2023-05-22T06:39:32.206Z,11.20
2023-05-22T06:42:17.943Z,11.20
2023-05-22T06:45:14.255Z,11.20
2023-05-22T06:47:54.788Z,11.20
2023-05-22T06:50:22.618Z,11.20
2023-05-22T06:52:49.747Z,11.20
2023-05-22T06:55:17.291Z,11.20
2023-05-22T06:57:56.918Z,11.20
2023-05-22T07:00:25.378Z,11.30
2023-05-22T07:02:59.426Z,11.30
2023-05-22T07:05:33.201Z,11.30
2023-05-22T07:08:01.795Z,11.40
2023-05-22T07:10:29.649Z,11.40
2023-05-22T07:12:58.933Z,11.40
2023-05-22T07:15:26.102Z,11.40
2023-05-22T07:17:56.558Z,11.40
2023-05-22T07:20:25.750Z,11.40
2023-05-22T07:23:22.966Z,11.40
2023-05-22T07:25:51.000Z,11.40
2023-05-22T07:28:22.648Z,11.40
2023-05-22T07:31:01.019Z,11.40
2023-05-22T07:33:28.574Z,11.40
2023-05-22T07:35:56.805Z,11.40
2023-05-22T07:38:23.982Z,11.40
2023-05-22T07:40:57.971Z,11.40
2023-05-22T07:43:26.099Z,11.40
2023-05-22T07:45:54.394Z,11.50
2023-05-22T07:48:25.000Z,11.60
2023-05-22T07:50:52.337Z,11.60
2023-05-22T07:53:20.932Z,11.70
2023-05-22T07:55:51.071Z,11.70
2023-05-22T07:58:19.714Z,11.80
2023-05-22T08:00:47.961Z,11.80
2023-05-22T08:03:15.187Z,11.80
2023-05-22T08:05:42.495Z,11.90
2023-05-22T08:08:10.560Z,12.00
2023-05-22T08:13:07.947Z,12.20
2023-05-22T08:15:35.497Z,12.20
2023-05-22T08:18:02.800Z,12.20
2023-05-22T08:20:29.856Z,12.20
2023-05-22T08:22:57.168Z,12.20
2023-05-22T08:25:24.257Z,12.10
2023-05-22T08:27:52.082Z,12.10
2023-05-22T08:30:19.149Z,12.20
2023-05-22T08:32:46.305Z,12.20
2023-05-22T08:35:14.384Z,12.20
2023-05-22T08:37:41.691Z,12.20
2023-05-22T08:40:13.378Z,12.20
2023-05-22T08:42:40.603Z,12.20
2023-05-22T08:45:08.087Z,12.10
2023-05-22T08:47:37.200Z,12.10
2023-05-22T08:50:05.652Z,12.10
2023-05-22T08:52:47.003Z,12.10
2023-05-22T08:55:14.450Z,12.10
2023-05-22T08:57:43.117Z,12.10
2023-05-22T09:00:10.945Z,12.10
2023-05-22T09:02:42.256Z,12.20
2023-05-22T09:05:10.102Z,12.20
2023-05-22T09:07:38.174Z,12.20
2023-05-22T09:10:07.305Z,12.20
2023-05-22T09:12:34.798Z,12.20
2023-05-22T09:15:11.648Z,12.20
2023-05-22T09:17:42.018Z,12.10
2023-05-22T09:20:13.426Z,12.20
2023-05-22T09:22:40.562Z,12.20
2023-05-22T09:25:08.153Z,12.20
2023-05-22T09:27:35.434Z,12.20
2023-05-22T09:30:02.563Z,12.30
2023-05-22T09:32:30.854Z,12.30
2023-05-22T09:35:05.053Z,12.30
2023-05-22T09:37:36.726Z,12.30
2023-05-22T09:40:08.510Z,12.30
2023-05-22T09:42:35.900Z,12.30
2023-05-22T09:45:07.314Z,12.40
2023-05-22T09:47:35.427Z,12.30
2023-05-22T09:50:07.507Z,12.30
2023-05-22T09:52:35.908Z,12.40
2023-05-22T09:55:05.301Z,12.50
2023-05-22T09:57:36.806Z,12.50
2023-05-22T10:00:09.607Z,12.60
2023-05-22T10:02:40.056Z,12.60
2023-05-22T10:05:09.513Z,12.70
2023-05-22T10:07:42.853Z,12.70
2023-05-22T10:10:12.271Z,12.80
2023-05-22T10:12:44.612Z,12.90
2023-05-22T10:15:12.311Z,13.00
2023-05-22T10:17:41.889Z,13.00
2023-05-22T10:20:10.515Z,13.20
2023-05-22T10:22:38.113Z,13.20
2023-05-22T10:25:07.941Z,13.20
2023-05-22T10:27:37.212Z,13.30
2023-05-22T10:30:24.968Z,13.40
2023-05-22T10:33:34.020Z,13.40
2023-05-22T10:36:24.007Z,13.40
2023-05-22T10:38:57.733Z,13.50
2023-05-22T10:41:26.092Z,13.50
2023-05-22T10:43:57.083Z,13.60
2023-05-22T10:46:24.286Z,13.60
2023-05-22T10:48:55.193Z,13.40
2023-05-22T10:51:23.192Z,13.50
2023-05-22T10:54:02.412Z,13.50
2023-05-22T10:56:38.387Z,13.60
2023-05-22T10:59:08.320Z,13.70
2023-05-22T11:01:38.314Z,13.60
2023-05-22T11:04:19.735Z,13.60
2023-05-22T11:07:05.488Z,13.50
2023-05-22T11:09:33.716Z,13.40
2023-05-22T11:12:16.318Z,13.40
2023-05-22T11:15:07.639Z,13.40
2023-05-22T11:17:46.870Z,13.40
2023-05-22T11:20:24.846Z,13.30
2023-05-22T11:23:05.299Z,13.30
2023-05-22T11:25:34.321Z,13.30
2023-05-22T11:28:07.516Z,13.30
2023-05-22T11:30:35.308Z,13.40
2023-05-22T11:33:03.057Z,13.40
2023-05-22T11:35:31.509Z,13.40
2023-05-22T11:37:59.032Z,13.30
2023-05-22T11:40:30.056Z,13.40
2023-05-22T11:42:57.278Z,13.40
2023-05-22T11:45:24.532Z,13.40
2023-05-22T11:47:51.883Z,13.50
2023-05-22T11:52:50.691Z,13.50
2023-05-22T11:55:18.429Z,13.40
2023-05-22T11:57:47.973Z,13.40
2023-05-22T12:00:15.729Z,13.50
2023-05-22T12:02:49.587Z,13.50
2023-05-22T12:05:16.895Z,13.60
2023-05-22T12:07:44.384Z,13.70
2023-05-22T12:10:12.498Z,13.70
2023-05-22T12:12:39.632Z,13.70
2023-05-22T12:15:07.562Z,13.80
2023-05-22T12:17:37.895Z,13.90
2023-05-22T12:20:07.227Z,14.00
2023-05-22T12:22:40.738Z,14.00
2023-05-22T12:25:15.514Z,14.10
2023-05-22T12:27:45.464Z,14.20
2023-05-22T12:30:13.800Z,14.30
2023-05-22T12:32:41.217Z,14.30
2023-05-22T12:35:15.964Z,14.30
2023-05-22T12:37:52.010Z,14.30
2023-05-22T12:40:19.761Z,14.30
2023-05-22T12:42:48.790Z,14.30
2023-05-22T12:45:17.948Z,14.30
2023-05-22T12:47:45.304Z,14.30
2023-05-22T12:50:12.580Z,14.30
2023-05-22T12:52:39.774Z,14.40
2023-05-22T12:55:07.505Z,14.50
2023-05-22T12:57:34.754Z,14.50
2023-05-22T13:00:01.985Z,14.60
2023-05-22T13:02:29.041Z,14.70
2023-05-22T13:04:56.133Z,14.90
2023-05-22T13:07:23.260Z,14.90
2023-05-22T13:09:50.302Z,14.90
2023-05-22T13:12:19.306Z,14.90
2023-05-22T13:14:46.663Z,14.90
2023-05-22T13:17:13.766Z,15.00
2023-05-22T13:19:40.855Z,15.00
2023-05-22T13:22:09.062Z,15.10
2023-05-22T13:24:36.258Z,15.10
2023-05-22T13:27:03.357Z,15.20
2023-05-22T13:29:30.456Z,15.30
2023-05-22T13:31:57.472Z,15.40
2023-05-22T13:34:25.027Z,15.50
2023-05-22T13:36:52.296Z,15.60
2023-05-22T13:39:19.366Z,15.70
2023-05-22T13:41:46.544Z,15.80
2023-05-22T13:44:13.719Z,15.80
2023-05-22T13:46:41.233Z,15.70
2023-05-22T13:49:08.386Z,15.80
2023-05-22T13:51:35.774Z,15.80
2023-05-22T13:54:03.607Z,15.80
2023-05-22T13:56:31.186Z,15.90
2023-05-22T13:58:58.478Z,15.80
2023-05-22T14:01:25.547Z,15.80
2023-05-22T14:03:52.701Z,16.00
2023-05-22T14:06:19.765Z,16.10
2023-05-22T14:08:46.835Z,16.30
2023-05-22T14:11:13.954Z,16.40
2023-05-22T14:13:41.152Z,16.50
2023-05-22T14:16:08.260Z,16.40
2023-05-22T14:18:35.584Z,16.30
2023-05-22T14:21:04.664Z,16.30
2023-05-22T14:23:32.127Z,16.40
2023-05-22T14:25:59.208Z,16.40
2023-05-22T14:28:26.823Z,16.30
2023-05-22T14:30:53.905Z,16.20
2023-05-22T14:33:21.111Z,16.20
2023-05-22T14:35:48.735Z,16.20
2023-05-22T14:38:15.809Z,16.20
2023-05-22T14:40:42.981Z,16.10
2023-05-22T14:43:10.231Z,16.00
2023-05-22T14:45:37.476Z,16.00
2023-05-22T14:48:05.024Z,16.00
2023-05-22T14:50:32.202Z,16.00
2023-05-22T14:52:59.311Z,16.00
2023-05-22T14:55:28.193Z,16.00
2023-05-22T14:57:55.931Z,16.10
2023-05-22T15:00:23.250Z,16.10
2023-05-22T15:02:50.524Z,16.00
2023-05-22T15:05:17.852Z,16.00
2023-05-22T15:07:46.289Z,16.10
2023-05-22T15:10:14.966Z,16.10
2023-05-22T15:12:42.101Z,16.10
2023-05-22T15:15:09.805Z,16.10
2023-05-22T15:17:36.999Z,16.10
2023-05-22T15:20:05.640Z,16.10
2023-05-22T15:22:32.764Z,16.20
2023-05-22T15:25:05.530Z,16.30
2023-05-22T15:27:35.133Z,16.20
2023-05-22T15:30:03.035Z,16.30
2023-05-22T15:32:31.830Z,16.30
2023-05-22T15:34:58.969Z,16.20
2023-05-22T15:37:27.926Z,16.30
2023-05-22T15:39:55.867Z,16.20
2023-05-22T15:42:22.946Z,16.20
2023-05-22T15:44:49.965Z,16.10
2023-05-22T15:47:17.102Z,15.90
2023-05-22T15:49:44.120Z,15.90
2023-05-22T15:52:11.260Z,15.90
2023-05-22T15:54:38.346Z,16.00
2023-05-22T15:57:05.655Z,16.20
2023-05-22T15:59:32.678Z,16.30
2023-05-22T16:01:59.809Z,16.20
2023-05-22T16:04:26.857Z,16.10
2023-05-22T16:06:54.139Z,16.10
2023-05-22T16:09:21.236Z,16.00
2023-05-22T16:11:49.099Z,15.90
2023-05-22T16:14:16.235Z,15.80
2023-05-22T16:16:43.884Z,15.80
2023-05-22T16:19:11.698Z,15.70
2023-05-22T16:21:39.120Z,15.70
2023-05-22T16:24:07.205Z,15.50
2023-05-22T16:26:34.428Z,15.50
2023-05-22T16:29:01.445Z,15.40
2023-05-22T16:31:30.029Z,15.40
2023-05-22T16:33:57.150Z,15.40
2023-05-22T16:36:25.770Z,15.40
2023-05-22T16:38:54.320Z,15.40
2023-05-22T16:41:22.966Z,15.40
2023-05-22T16:43:50.582Z,15.40
2023-05-22T16:46:18.530Z,15.40
2023-05-22T16:48:45.653Z,15.50
2023-05-22T16:51:12.715Z,15.60
2023-05-22T16:53:44.134Z,15.70
2023-05-22T16:56:12.563Z,15.70
2023-05-22T16:58:39.717Z,15.60
2023-05-22T17:01:07.406Z,15.70
2023-05-22T17:03:34.758Z,15.70
2023-05-22T17:06:03.205Z,15.70
2023-05-22T17:08:30.388Z,15.80
2023-05-22T17:10:57.535Z,15.80
2023-05-22T17:13:24.598Z,15.90
2023-05-22T17:15:51.957Z,15.90
2023-05-22T17:18:21.023Z,16.00
2023-05-22T17:20:54.071Z,15.90
2023-05-22T17:23:21.477Z,15.90
2023-05-22T17:25:48.982Z,16.00
2023-05-22T17:28:16.656Z,16.10
2023-05-22T17:30:47.241Z,16.20
2023-05-22T17:33:14.458Z,16.30
2023-05-22T17:35:42.069Z,16.30
2023-05-22T17:38:09.244Z,16.40
2023-05-22T17:40:44.709Z,16.30
2023-05-22T17:43:13.408Z,16.20
2023-05-22T17:45:41.817Z,16.00
2023-05-22T17:48:09.360Z,15.80
2023-05-22T17:50:36.487Z,15.60
2023-05-22T17:53:03.667Z,15.50
2023-05-22T17:55:30.720Z,15.40
2023-05-22T17:57:58.535Z,15.40
2023-05-22T18:00:25.745Z,15.30
2023-05-22T18:02:52.947Z,15.30
2023-05-22T18:05:20.051Z,15.20
2023-05-22T18:07:47.097Z,15.10
2023-05-22T18:10:14.178Z,15.00
2023-05-22T18:12:41.255Z,15.00
2023-05-22T18:15:10.738Z,15.00
2023-05-22T18:17:38.682Z,15.00
2023-05-22T18:20:08.082Z,14.90
2023-05-22T18:22:38.426Z,14.90
2023-05-22T18:25:06.984Z,14.90
2023-05-22T18:27:34.611Z,14.80
2023-05-22T18:30:02.447Z,14.70
2023-05-22T18:32:29.810Z,14.70
2023-05-22T18:34:58.652Z,14.60
2023-05-22T18:37:26.471Z,14.60
2023-05-22T18:39:58.858Z,14.50
2023-05-22T18:42:26.007Z,14.40
2023-05-22T18:44:53.240Z,14.40
2023-05-22T18:47:20.611Z,14.40
2023-05-22T18:49:47.653Z,14.30
2023-05-22T18:52:14.782Z,14.20
2023-05-22T18:54:41.892Z,14.10
2023-05-22T18:57:08.945Z,14.00
2023-05-22T18:59:37.484Z,14.00
2023-05-22T19:02:04.795Z,14.00
2023-05-22T19:04:31.927Z,14.00
2023-05-22T19:06:59.146Z,14.00
2023-05-22T19:09:26.300Z,13.90
2023-05-22T19:11:53.430Z,13.90
2023-05-22T19:14:20.495Z,13.90
2023-05-22T19:16:47.642Z,13.80
2023-05-22T19:19:14.950Z,13.70
2023-05-22T19:21:42.229Z,13.60
2023-05-22T19:24:09.260Z,13.60
2023-05-22T19:26:36.429Z,13.50
2023-05-22T19:29:03.513Z,13.60
2023-05-22T19:31:30.698Z,13.60
2023-05-22T19:33:57.912Z,13.50
2023-05-22T19:36:25.053Z,13.50
2023-05-22T19:38:53.592Z,13.50
2023-05-22T19:41:23.147Z,13.50
2023-05-22T19:43:51.829Z,13.40
2023-05-22T19:46:19.084Z,13.40
2023-05-22T19:48:46.183Z,13.40
2023-05-22T19:51:13.428Z,13.40
2023-05-22T19:53:42.514Z,13.40
2023-05-22T19:56:09.617Z,13.40
2023-05-22T19:58:36.774Z,13.30
2023-05-22T20:01:03.959Z,13.30
2023-05-22T20:03:31.252Z,13.30
2023-05-22T20:05:58.627Z,13.30
2023-05-22T20:08:26.247Z,13.30
2023-05-22T20:10:53.417Z,13.30
2023-05-22T20:13:20.567Z,13.30
2023-05-22T20:15:47.922Z,13.20
2023-05-22T20:18:15.302Z,13.20
2023-05-22T20:20:42.551Z,13.20
2023-05-22T20:23:09.724Z,13.20
2023-05-22T20:25:37.761Z,13.10
2023-05-22T20:28:05.254Z,13.10
2023-05-22T20:30:32.726Z,13.10
2023-05-22T20:32:59.849Z,13.10
2023-05-22T20:35:27.052Z,13.10
2023-05-22T20:37:54.102Z,13.10
2023-05-22T20:40:21.895Z,13.00
2023-05-22T20:42:49.307Z,13.00
2023-05-22T20:45:17.480Z,13.00
2023-05-22T20:47:44.739Z,13.00
2023-05-22T20:50:11.966Z,13.00
2023-05-22T20:52:39.089Z,12.90
2023-05-22T20:55:06.968Z,12.90
2023-05-22T20:57:34.797Z,12.90
2023-05-22T21:00:01.960Z,12.80
2023-05-22T21:02:31.090Z,12.70
2023-05-22T21:04:58.342Z,12.70
2023-05-22T21:07:25.554Z,12.60
2023-05-22T21:09:52.652Z,12.60
2023-05-22T21:12:19.834Z,12.60
2023-05-22T21:14:47.350Z,12.50
2023-05-22T21:17:14.547Z,12.40
2023-05-22T21:19:41.729Z,12.40
2023-05-22T21:22:09.138Z,12.30
2023-05-22T21:24:36.226Z,12.30
2023-05-22T21:27:03.399Z,12.20
2023-05-22T21:29:30.619Z,12.20
2023-05-22T21:31:57.709Z,12.10
2023-05-22T21:34:24.923Z,12.10
2023-05-22T21:36:52.010Z,12.10
2023-05-22T21:39:19.147Z,12.10
2023-05-22T21:41:47.166Z,12.00
2023-05-22T21:44:15.818Z,12.00
2023-05-22T21:46:42.930Z,11.90
2023-05-22T21:49:10.972Z,11.90
2023-05-22T21:51:38.013Z,11.90
2023-05-22T21:54:05.209Z,11.90
2023-05-22T21:56:32.282Z,11.90
2023-05-22T21:58:59.762Z,11.80
2023-05-22T22:01:26.936Z,11.80
2023-05-22T22:03:54.309Z,11.80
2023-05-22T22:06:21.395Z,11.80
2023-05-22T22:08:48.515Z,11.80
2023-05-22T22:11:15.993Z,11.80
2023-05-22T22:13:43.072Z,11.80
2023-05-22T22:16:10.269Z,11.80
2023-05-22T22:18:37.481Z,11.80
2023-05-22T22:21:04.698Z,11.80
2023-05-22T22:23:31.805Z,11.80
2023-05-22T22:25:58.873Z,11.70
2023-05-22T22:28:25.993Z,11.70
2023-05-22T22:30:55.178Z,11.60
2023-05-22T22:33:22.972Z,11.60
2023-05-22T22:35:50.099Z,11.60
2023-05-22T22:38:17.332Z,11.60
2023-05-22T22:40:44.483Z,11.60
2023-05-22T22:43:11.621Z,11.70
2023-05-22T22:45:40.323Z,11.80
2023-05-22T22:48:07.696Z,11.80
2023-05-22T22:50:34.821Z,11.80
2023-05-22T22:53:01.918Z,11.90
2023-05-22T22:55:29.142Z,11.90
2023-05-22T22:57:56.532Z,11.90
2023-05-22T23:00:23.793Z,12.00
2023-05-22T23:02:51.179Z,11.90
2023-05-22T23:05:20.492Z,12.00
2023-05-22T23:07:48.197Z,11.90
2023-05-22T23:10:15.721Z,11.90
2023-05-22T23:12:43.216Z,11.90
2023-05-22T23:15:13.119Z,11.90
2023-05-22T23:17:41.489Z,11.80
2023-05-22T23:20:09.040Z,11.70
2023-05-22T23:22:36.116Z,11.60
2023-05-22T23:25:03.377Z,11.50
2023-05-22T23:27:30.674Z,11.40
2023-05-22T23:29:58.358Z,11.30
2023-05-22T23:32:25.532Z,11.30
2023-05-22T23:34:52.597Z,11.20
2023-05-22T23:37:19.717Z,11.20
2023-05-22T23:39:46.785Z,11.20
2023-05-22T23:42:13.910Z,11.10
2023-05-22T23:44:41.169Z,11.10
2023-05-22T23:47:08.407Z,11.10
2023-05-22T23:49:35.538Z,11.10
2023-05-22T23:52:02.636Z,11.00
2023-05-22T23:54:29.673Z,11.00
2023-05-22T23:56:56.763Z,10.90
2023-05-22T23:59:23.799Z,10.90
